createdAt,value
2017-05-11T00:00:26.019Z,0
2017-05-11T00:01:48.409Z,0
2017-05-11T00:03:09.949Z,0
2017-05-11T00:04:31.480Z,0
2017-05-11T00:05:53.292Z,0
2017-05-11T00:07:15.120Z,0
2017-05-11T00:08:36.639Z,0
2017-05-11T00:09:58.789Z,0
2017-05-11T00:11:20.618Z,0
2017-05-11T00:12:42.399Z,0
2017-05-11T00:14:04.539Z,0
2017-05-11T00:15:26.387Z,0
2017-05-11T00:16:47.895Z,0
2017-05-11T00:18:10.148Z,0
2017-05-11T00:19:31.355Z,0
2017-05-11T00:20:53.184Z,0
2017-05-11T00:22:15.471Z,0
2017-05-11T00:23:37.598Z,0
2017-05-11T00:24:59.405Z,0
2017-05-11T00:26:21.368Z,0
2017-05-11T00:27:43.182Z,0
2017-05-11T00:29:04.972Z,0
2017-05-11T00:30:26.478Z,0
2017-05-11T00:31:48.342Z,0
2017-05-11T00:33:10.489Z,0
2017-05-11T00:34:32.948Z,0
2017-05-11T00:35:54.778Z,0
2017-05-11T00:37:16.599Z,0
2017-05-11T00:38:38.501Z,0
2017-05-11T00:40:00.940Z,0
2017-05-11T00:41:22.749Z,0
2017-05-11T00:42:44.935Z,0
2017-05-11T00:44:06.503Z,0
2017-05-11T00:45:28.448Z,0
2017-05-11T00:46:50.398Z,0
2017-05-11T00:48:12.388Z,0
2017-05-11T00:49:34.575Z,0
2017-05-11T00:50:56.811Z,0
2017-05-11T00:52:19.351Z,0
2017-05-11T00:53:41.208Z,0
2017-05-11T00:55:03.021Z,0
2017-05-11T00:56:25.546Z,0
2017-05-11T00:57:47.712Z,0
2017-05-11T00:59:10.174Z,0
2017-05-11T01:00:31.662Z,0
2017-05-11T01:01:54.174Z,0
2017-05-11T01:03:15.778Z,0
2017-05-11T01:04:37.915Z,0
2017-05-11T01:05:59.749Z,0
2017-05-11T01:07:21.919Z,0
2017-05-11T01:08:43.878Z,0
2017-05-11T01:10:06.121Z,0
2017-05-11T01:11:28.582Z,0
2017-05-11T01:12:50.980Z,0
2017-05-11T01:14:13.137Z,0
2017-05-11T01:15:35.289Z,0
2017-05-11T01:16:57.499Z,0
2017-05-11T01:18:20.254Z,0
2017-05-11T01:19:42.167Z,0
2017-05-11T01:21:04.060Z,0
2017-05-11T01:22:25.908Z,0
2017-05-11T01:23:48.619Z,0
2017-05-11T01:25:10.769Z,0
2017-05-11T01:26:33.393Z,0
2017-05-11T01:27:55.209Z,0
2017-05-11T01:29:16.699Z,0
2017-05-11T01:30:38.540Z,0
2017-05-11T01:32:01.073Z,0
2017-05-11T01:33:22.918Z,0
2017-05-11T01:34:44.730Z,0
2017-05-11T01:36:06.260Z,0
2017-05-11T01:37:28.425Z,0
2017-05-11T01:38:50.130Z,0
2017-05-11T01:40:12.591Z,0
2017-05-11T01:41:35.060Z,0
2017-05-11T01:42:57.198Z,0
2017-05-11T01:44:19.022Z,0
2017-05-11T01:45:40.855Z,0
2017-05-11T01:47:02.709Z,0
2017-05-11T01:48:24.540Z,0
2017-05-11T01:49:46.681Z,0
2017-05-11T01:51:09.172Z,0
2017-05-11T01:52:30.996Z,0
2017-05-11T01:53:52.909Z,0
2017-05-11T01:55:14.499Z,0
2017-05-11T01:56:36.954Z,0
2017-05-11T01:57:58.885Z,0
2017-05-11T01:59:20.717Z,0
2017-05-11T02:00:41.969Z,0
2017-05-11T02:02:03.825Z,0
2017-05-11T02:03:25.038Z,0
2017-05-11T02:04:46.219Z,0
2017-05-11T02:06:08.048Z,0
2017-05-11T02:07:29.819Z,0
2017-05-11T02:08:51.979Z,0
2017-05-11T02:10:13.860Z,0
2017-05-11T02:11:35.425Z,0
2017-05-11T02:12:57.528Z,0
2017-05-11T02:14:19.750Z,0
2017-05-11T02:15:42.269Z,0
2017-05-11T02:17:04.099Z,0
2017-05-11T02:18:26.539Z,0
2017-05-11T02:19:48.468Z,0
2017-05-11T02:21:10.718Z,0
2017-05-11T02:22:32.261Z,0
2017-05-11T02:23:55.007Z,0
2017-05-11T02:25:17.172Z,0
2017-05-11T02:26:39.094Z,0
2017-05-11T02:28:00.929Z,0
2017-05-11T02:29:22.919Z,0
2017-05-11T02:30:44.871Z,0
2017-05-11T02:32:06.808Z,0
2017-05-11T02:33:28.738Z,0
2017-05-11T02:34:51.181Z,0
2017-05-11T02:36:13.006Z,0
2017-05-11T02:37:35.142Z,0
2017-05-11T02:38:57.598Z,0
2017-05-11T02:40:19.710Z,0
2017-05-11T02:41:42.175Z,0
2017-05-11T02:43:03.692Z,0
2017-05-11T02:44:25.513Z,0
2017-05-11T02:45:47.950Z,0
2017-05-11T02:47:09.142Z,0
2017-05-11T02:48:31.269Z,0
2017-05-11T02:49:53.418Z,0
2017-05-11T02:51:16.473Z,0
2017-05-11T02:52:38.939Z,0
2017-05-11T02:54:01.128Z,0
2017-05-11T02:55:23.289Z,0
2017-05-11T02:56:45.356Z,0
2017-05-11T02:58:07.818Z,0
2017-05-11T02:59:29.328Z,0
2017-05-11T03:00:50.837Z,0
2017-05-11T03:02:12.637Z,0
2017-05-11T03:03:34.765Z,0
2017-05-11T03:04:56.601Z,0
2017-05-11T03:06:18.584Z,0
2017-05-11T03:07:40.712Z,0
2017-05-11T03:09:03.258Z,0
2017-05-11T03:10:25.084Z,0
2017-05-11T03:11:46.905Z,0
2017-05-11T03:13:09.828Z,0
2017-05-11T03:14:32.166Z,0
2017-05-11T03:15:54.018Z,0
2017-05-11T03:17:15.852Z,0
2017-05-11T03:18:38.385Z,0
2017-05-11T03:19:59.621Z,0
2017-05-11T03:21:21.438Z,0
2017-05-11T03:22:43.478Z,0
2017-05-11T03:24:05.490Z,0
2017-05-11T03:25:26.688Z,5
2017-05-11T03:26:48.204Z,5
2017-05-11T03:28:10.361Z,5
2017-05-11T03:29:32.856Z,5
2017-05-11T03:30:54.108Z,5
2017-05-11T03:32:15.297Z,5
2017-05-11T03:33:37.442Z,10
2017-05-11T03:34:59.567Z,10
2017-05-11T03:36:21.709Z,10
2017-05-11T03:37:43.847Z,15
2017-05-11T03:39:06.411Z,15
2017-05-11T03:40:28.894Z,15
2017-05-11T03:41:50.728Z,20
2017-05-11T03:43:12.878Z,20
2017-05-11T03:44:34.737Z,25
2017-05-11T03:45:56.918Z,25
2017-05-11T03:47:18.517Z,30
2017-05-11T03:48:40.038Z,30
2017-05-11T03:50:01.873Z,35
2017-05-11T03:51:23.782Z,35
2017-05-11T03:52:46.252Z,35
2017-05-11T03:54:08.523Z,40
2017-05-11T03:55:30.359Z,40
2017-05-11T03:56:52.550Z,45
2017-05-11T03:58:14.048Z,50
2017-05-11T03:59:35.568Z,50
2017-05-11T04:00:57.448Z,55
2017-05-11T04:02:19.578Z,60
2017-05-11T04:03:41.725Z,60
2017-05-11T04:05:03.658Z,60
2017-05-11T04:06:25.174Z,65
2017-05-11T04:07:47.618Z,65
2017-05-11T04:09:09.528Z,65
2017-05-11T04:10:31.508Z,70
2017-05-11T04:11:53.049Z,70
2017-05-11T04:13:15.436Z,75
2017-05-11T04:14:37.278Z,75
2017-05-11T04:15:58.464Z,75
2017-05-11T04:17:20.283Z,75
2017-05-11T04:18:42.709Z,80
2017-05-11T04:20:04.508Z,80
2017-05-11T04:21:26.996Z,85
2017-05-11T04:22:48.299Z,85
2017-05-11T04:24:10.432Z,85
2017-05-11T04:25:31.934Z,90
2017-05-11T04:26:53.758Z,90
2017-05-11T04:28:15.567Z,90
2017-05-11T04:29:37.659Z,95
2017-05-11T04:30:59.498Z,95
2017-05-11T04:32:21.008Z,100
2017-05-11T04:33:43.169Z,100
2017-05-11T04:35:05.622Z,105
2017-05-11T04:36:27.759Z,105
2017-05-11T04:37:49.267Z,110
2017-05-11T04:39:11.099Z,110
2017-05-11T04:40:33.274Z,115
2017-05-11T04:41:55.412Z,115
2017-05-11T04:43:17.240Z,120
2017-05-11T04:44:39.396Z,120
2017-05-11T04:46:01.567Z,130
2017-05-11T04:47:24.042Z,130
2017-05-11T04:48:45.858Z,135
2017-05-11T04:50:08.027Z,130
2017-05-11T04:51:29.522Z,135
2017-05-11T04:52:51.038Z,135
2017-05-11T04:54:13.189Z,140
2017-05-11T04:55:35.455Z,145
2017-05-11T04:56:57.635Z,150
2017-05-11T04:58:19.763Z,160
2017-05-11T04:59:41.969Z,160
2017-05-11T05:01:03.872Z,170
2017-05-11T05:02:26.316Z,180
2017-05-11T05:03:48.469Z,195
2017-05-11T05:05:09.986Z,205
2017-05-11T05:06:32.129Z,275
2017-05-11T05:07:54.063Z,350
2017-05-11T05:09:15.259Z,325
2017-05-11T05:10:37.399Z,305
2017-05-11T05:11:59.219Z,315
2017-05-11T05:13:22.157Z,310
2017-05-11T05:14:44.609Z,535
2017-05-11T05:16:06.447Z,635
2017-05-11T05:17:28.330Z,660
2017-05-11T05:18:50.426Z,645
2017-05-11T05:20:12.966Z,650
2017-05-11T05:21:34.172Z,670
2017-05-11T05:22:56.327Z,665
2017-05-11T05:24:18.789Z,690
2017-05-11T05:25:41.261Z,715
2017-05-11T05:27:03.407Z,720
2017-05-11T05:28:24.927Z,740
2017-05-11T05:29:47.838Z,750
2017-05-11T05:31:09.982Z,710
2017-05-11T05:32:31.831Z,710
2017-05-11T05:33:53.999Z,685
2017-05-11T05:35:16.235Z,670
2017-05-11T05:36:38.709Z,680
2017-05-11T05:38:00.639Z,665
2017-05-11T05:39:22.812Z,685
2017-05-11T05:40:44.988Z,675
2017-05-11T05:42:06.607Z,645
2017-05-11T05:43:28.111Z,585
2017-05-11T05:44:50.336Z,600
2017-05-11T05:46:12.419Z,575
2017-05-11T05:47:34.648Z,530
2017-05-11T05:48:56.170Z,540
2017-05-11T05:50:18.339Z,550
2017-05-11T05:51:40.319Z,540
2017-05-11T05:53:02.150Z,515
2017-05-11T05:54:23.695Z,515
2017-05-11T05:55:46.160Z,495
2017-05-11T05:57:08.278Z,535
2017-05-11T05:58:30.430Z,535
2017-05-11T05:59:51.969Z,535
2017-05-11T06:01:13.819Z,560
2017-05-11T06:02:36.391Z,565
2017-05-11T06:03:58.549Z,545
2017-05-11T06:05:20.518Z,515
2017-05-11T06:06:42.378Z,515
2017-05-11T06:08:04.188Z,510
2017-05-11T06:09:26.029Z,515
2017-05-11T06:10:48.179Z,485
2017-05-11T06:12:10.025Z,490
2017-05-11T06:13:32.849Z,470
2017-05-11T06:14:54.689Z,485
2017-05-11T06:16:16.899Z,480
2017-05-11T06:17:39.427Z,505
2017-05-11T06:19:01.650Z,495
2017-05-11T06:20:23.929Z,500
2017-05-11T06:21:46.140Z,465
2017-05-11T06:23:08.298Z,510
2017-05-11T06:24:30.819Z,500
2017-05-11T06:25:53.287Z,500
2017-05-11T06:27:15.589Z,505
2017-05-11T06:28:37.120Z,500
2017-05-11T06:29:59.901Z,505
2017-05-11T06:31:21.827Z,500
2017-05-11T06:32:43.689Z,520
2017-05-11T06:34:05.353Z,520
2017-05-11T06:35:27.420Z,520
2017-05-11T06:36:49.589Z,515
2017-05-11T06:38:11.749Z,530
2017-05-11T06:39:32.999Z,500
2017-05-11T06:40:55.500Z,520
2017-05-11T06:42:18.020Z,515
2017-05-11T06:43:39.560Z,505
2017-05-11T06:45:01.707Z,455
2017-05-11T06:46:24.259Z,510
2017-05-11T06:47:46.749Z,520
2017-05-11T06:49:08.290Z,515
2017-05-11T06:50:30.169Z,505
2017-05-11T06:51:51.808Z,445
2017-05-11T06:53:14.060Z,480
2017-05-11T06:54:36.228Z,525
2017-05-11T06:55:57.780Z,525
2017-05-11T06:57:20.620Z,520
2017-05-11T06:58:42.819Z,515
2017-05-11T07:00:04.679Z,515
2017-05-11T07:01:27.228Z,515
2017-05-11T07:02:49.751Z,510
2017-05-11T07:04:11.920Z,505
2017-05-11T07:05:33.770Z,500
2017-05-11T07:06:55.599Z,500
2017-05-11T07:08:18.008Z,505
2017-05-11T07:09:39.230Z,525
2017-05-11T07:11:01.747Z,525
2017-05-11T07:12:23.971Z,505
2017-05-11T07:13:45.818Z,515
2017-05-11T07:15:07.350Z,525
2017-05-11T07:16:29.190Z,530
2017-05-11T07:17:51.409Z,530
2017-05-11T07:19:13.652Z,545
2017-05-11T07:20:35.559Z,550
2017-05-11T07:21:57.768Z,555
2017-05-11T07:23:19.661Z,560
2017-05-11T07:24:42.411Z,560
2017-05-11T07:26:03.929Z,545
2017-05-11T07:27:26.196Z,535
2017-05-11T07:28:47.808Z,525
2017-05-11T07:30:09.636Z,525
2017-05-11T07:31:31.858Z,520
2017-05-11T07:32:54.468Z,510
2017-05-11T07:34:16.078Z,505
2017-05-11T07:35:37.588Z,490
2017-05-11T07:36:59.160Z,470
2017-05-11T07:38:21.640Z,455
2017-05-11T07:39:44.135Z,450
2017-05-11T07:41:06.329Z,455
2017-05-11T07:42:28.641Z,460
2017-05-11T07:43:51.156Z,465
2017-05-11T07:45:12.810Z,465
2017-05-11T07:46:35.307Z,440
2017-05-11T07:47:57.290Z,445
2017-05-11T07:49:19.444Z,435
2017-05-11T07:50:41.422Z,435
2017-05-11T07:52:03.946Z,445
2017-05-11T07:53:25.506Z,450
2017-05-11T07:54:47.358Z,440
2017-05-11T07:56:09.239Z,445
2017-05-11T07:57:31.399Z,425
2017-05-11T07:58:53.882Z,425
2017-05-11T08:00:15.411Z,430
2017-05-11T08:01:37.889Z,425
2017-05-11T08:03:00.798Z,420
2017-05-11T08:04:22.666Z,390
2017-05-11T08:05:44.521Z,295
2017-05-11T08:07:06.718Z,250
2017-05-11T08:08:29.351Z,250
2017-05-11T08:09:51.851Z,245
2017-05-11T08:11:14.016Z,245
2017-05-11T08:12:36.176Z,240
2017-05-11T08:13:58.698Z,235
2017-05-11T08:15:20.320Z,235
2017-05-11T08:16:42.208Z,235
2017-05-11T08:18:04.069Z,240
2017-05-11T08:19:26.209Z,240
2017-05-11T08:20:47.772Z,240
2017-05-11T08:22:09.629Z,240
2017-05-11T08:23:31.480Z,240
2017-05-11T08:24:53.298Z,240
2017-05-11T08:26:15.132Z,240
2017-05-11T08:27:37.621Z,240
2017-05-11T08:28:59.799Z,240
2017-05-11T08:30:21.990Z,240
2017-05-11T08:31:44.151Z,240
2017-05-11T08:33:06.661Z,240
2017-05-11T08:34:29.128Z,240
2017-05-11T08:35:51.366Z,240
2017-05-11T08:37:13.617Z,240
2017-05-11T08:38:35.759Z,240
2017-05-11T08:39:56.978Z,240
2017-05-11T08:41:18.874Z,240
2017-05-11T08:42:41.121Z,240
2017-05-11T08:44:03.737Z,240
2017-05-11T08:45:25.590Z,240
2017-05-11T08:46:47.634Z,240
2017-05-11T08:48:09.480Z,240
2017-05-11T08:49:31.419Z,240
2017-05-11T08:50:53.262Z,240
2017-05-11T08:52:15.625Z,235
2017-05-11T08:53:37.459Z,235
2017-05-11T08:54:59.308Z,235
2017-05-11T08:56:20.839Z,235
2017-05-11T08:57:43.513Z,235
2017-05-11T08:59:05.359Z,235
2017-05-11T09:00:27.215Z,230
2017-05-11T09:01:49.361Z,230
2017-05-11T09:03:12.143Z,230
2017-05-11T09:04:33.765Z,230
2017-05-11T09:05:55.319Z,230
2017-05-11T09:07:16.839Z,230
2017-05-11T09:08:38.665Z,230
2017-05-11T09:10:01.130Z,230
2017-05-11T09:11:23.448Z,230
2017-05-11T09:12:44.715Z,230
2017-05-11T09:14:06.834Z,230
2017-05-11T09:15:28.675Z,225
2017-05-11T09:16:50.912Z,225
2017-05-11T09:18:13.071Z,225
2017-05-11T09:19:35.329Z,225
2017-05-11T09:20:57.947Z,230
2017-05-11T09:22:19.827Z,225
2017-05-11T09:23:41.668Z,230
2017-05-11T09:25:03.854Z,225
2017-05-11T09:26:25.677Z,230
2017-05-11T09:27:46.892Z,230
2017-05-11T09:29:07.869Z,225
2017-05-11T09:30:29.798Z,225
2017-05-11T09:31:51.628Z,225
2017-05-11T09:33:13.208Z,225
2017-05-11T09:34:35.238Z,225
2017-05-11T09:35:57.327Z,225
2017-05-11T09:37:19.152Z,225
2017-05-11T09:38:41.070Z,225
2017-05-11T09:40:03.239Z,220
2017-05-11T09:41:25.081Z,220
2017-05-11T09:42:47.242Z,220
2017-05-11T09:44:09.707Z,220
2017-05-11T09:45:31.858Z,220
2017-05-11T09:46:54.327Z,220
2017-05-11T09:48:15.865Z,220
2017-05-11T09:49:37.388Z,215
2017-05-11T09:50:59.911Z,215
2017-05-11T09:52:22.377Z,215
2017-05-11T09:53:43.898Z,215
2017-05-11T09:55:05.780Z,215
2017-05-11T09:56:28.060Z,215
2017-05-11T09:57:50.465Z,215
2017-05-11T09:59:12.645Z,215
2017-05-11T10:00:34.150Z,210
2017-05-11T10:01:56.317Z,210
2017-05-11T10:03:18.567Z,210
2017-05-11T10:04:41.018Z,210
2017-05-11T10:06:03.636Z,210
2017-05-11T10:07:25.200Z,210
2017-05-11T10:08:47.407Z,210
2017-05-11T10:10:08.927Z,205
2017-05-11T10:11:31.128Z,205
2017-05-11T10:12:52.708Z,205
2017-05-11T10:14:15.603Z,205
2017-05-11T10:15:37.772Z,205
2017-05-11T10:16:59.299Z,205
2017-05-11T10:18:21.513Z,205
2017-05-11T10:19:43.627Z,205
2017-05-11T10:21:05.460Z,205
2017-05-11T10:22:27.026Z,205
2017-05-11T10:23:49.598Z,200
2017-05-11T10:25:11.798Z,200
2017-05-11T10:26:33.637Z,200
2017-05-11T10:27:55.483Z,200
2017-05-11T10:29:17.101Z,200
2017-05-11T10:30:39.198Z,200
2017-05-11T10:32:01.028Z,200
2017-05-11T10:33:23.287Z,195
2017-05-11T10:34:45.501Z,195
2017-05-11T10:36:07.929Z,195
2017-05-11T10:37:30.084Z,195
2017-05-11T10:38:51.821Z,195
2017-05-11T10:40:14.288Z,195
2017-05-11T10:41:36.166Z,195
2017-05-11T10:42:58.329Z,190
2017-05-11T10:44:19.545Z,190
2017-05-11T10:45:41.768Z,190
2017-05-11T10:47:04.228Z,190
2017-05-11T10:48:26.133Z,190
2017-05-11T10:49:47.671Z,190
2017-05-11T10:51:09.909Z,190
2017-05-11T10:52:32.398Z,190
2017-05-11T10:53:54.408Z,190
2017-05-11T10:55:16.256Z,190
2017-05-11T10:56:38.114Z,190
2017-05-11T10:58:00.242Z,190
2017-05-11T10:59:22.508Z,190
2017-05-11T11:00:44.347Z,190
2017-05-11T11:02:05.885Z,190
2017-05-11T11:03:28.034Z,190
2017-05-11T11:04:50.188Z,190
2017-05-11T11:06:12.351Z,190
2017-05-11T11:07:34.817Z,185
2017-05-11T11:08:57.007Z,185
2017-05-11T11:10:18.848Z,185
2017-05-11T11:11:40.408Z,185
2017-05-11T11:13:34.221Z,185
2017-05-11T11:14:57.060Z,185
2017-05-11T11:16:18.598Z,185
2017-05-11T11:17:41.087Z,185
2017-05-11T11:19:03.378Z,185
2017-05-11T11:20:25.818Z,185
2017-05-11T11:21:47.668Z,185
2017-05-11T11:23:10.169Z,180
2017-05-11T11:24:32.635Z,180
2017-05-11T11:25:55.137Z,180
2017-05-11T11:27:17.303Z,180
2017-05-11T11:28:39.478Z,180
2017-05-11T11:30:01.057Z,180
2017-05-11T11:31:23.567Z,180
2017-05-11T11:32:45.067Z,180
2017-05-11T11:34:07.006Z,180
2017-05-11T11:35:29.177Z,180
2017-05-11T11:36:51.487Z,180
2017-05-11T11:38:13.648Z,180
2017-05-11T11:39:35.155Z,180
2017-05-11T11:40:57.318Z,180
2017-05-11T11:42:19.807Z,180
2017-05-11T11:43:42.000Z,180
2017-05-11T11:45:04.160Z,175
2017-05-11T11:46:25.986Z,175
2017-05-11T11:47:48.464Z,175
2017-05-11T11:49:10.745Z,175
2017-05-11T11:50:33.019Z,175
2017-05-11T11:51:55.182Z,175
2017-05-11T11:53:17.411Z,175
2017-05-11T11:54:39.733Z,175
2017-05-11T11:56:01.645Z,175
2017-05-11T11:57:23.190Z,175
2017-05-11T11:58:45.718Z,175
2017-05-11T12:00:07.965Z,175
2017-05-11T12:01:30.181Z,175
2017-05-11T12:02:52.027Z,175
2017-05-11T12:04:14.543Z,175
2017-05-11T12:05:36.138Z,175
2017-05-11T12:06:57.690Z,175
2017-05-11T12:08:20.018Z,175
2017-05-11T12:09:42.539Z,175
2017-05-11T12:11:04.677Z,175
2017-05-11T12:12:26.841Z,175
2017-05-11T12:13:49.055Z,175
2017-05-11T12:15:11.198Z,175
2017-05-11T12:16:33.744Z,170
2017-05-11T12:17:55.622Z,170
2017-05-11T12:19:17.507Z,170
2017-05-11T12:20:39.914Z,175
2017-05-11T12:22:02.076Z,170
2017-05-11T12:23:23.278Z,170
2017-05-11T12:24:45.850Z,170
2017-05-11T12:26:08.266Z,170
2017-05-11T12:27:29.788Z,170
2017-05-11T12:28:52.096Z,170
2017-05-11T12:30:14.601Z,170
2017-05-11T12:31:36.848Z,170
2017-05-11T12:32:58.751Z,170
2017-05-11T12:34:20.937Z,170
2017-05-11T12:35:43.139Z,175
2017-05-11T12:37:05.865Z,170
2017-05-11T12:38:28.108Z,170
2017-05-11T12:39:49.759Z,170
2017-05-11T12:41:12.327Z,170
2017-05-11T12:42:35.158Z,165
2017-05-11T12:43:57.114Z,165
2017-05-11T12:45:19.270Z,170
2017-05-11T12:46:41.447Z,175
2017-05-11T12:48:03.532Z,170
2017-05-11T12:49:26.016Z,170
2017-05-11T12:50:48.495Z,165
2017-05-11T12:52:10.985Z,170
2017-05-11T12:53:33.823Z,165
2017-05-11T12:54:55.682Z,165
2017-05-11T12:56:17.864Z,165
2017-05-11T12:57:40.019Z,165
2017-05-11T12:59:02.589Z,165
2017-05-11T13:00:24.162Z,165
2017-05-11T13:01:46.027Z,165
2017-05-11T13:03:07.218Z,165
2017-05-11T13:04:29.655Z,165
2017-05-11T13:05:51.917Z,165
2017-05-11T13:07:13.447Z,165
2017-05-11T13:08:35.369Z,165
2017-05-11T13:09:57.890Z,165
2017-05-11T13:11:19.826Z,165
2017-05-11T13:12:41.355Z,165
2017-05-11T13:14:03.209Z,165
2017-05-11T13:15:25.394Z,165
2017-05-11T13:16:47.970Z,160
2017-05-11T13:18:09.896Z,160
2017-05-11T13:19:32.457Z,160
2017-05-11T13:20:54.929Z,160
2017-05-11T13:22:16.825Z,160
2017-05-11T13:23:39.127Z,160
2017-05-11T13:25:01.627Z,160
2017-05-11T13:26:23.167Z,165
2017-05-11T13:27:45.346Z,165
2017-05-11T13:29:07.674Z,165
2017-05-11T13:30:29.527Z,165
2017-05-11T13:31:51.510Z,165
2017-05-11T13:33:13.358Z,165
2017-05-11T13:34:35.196Z,165
2017-05-11T13:35:57.107Z,165
2017-05-11T13:37:19.521Z,165
2017-05-11T13:38:42.016Z,165
2017-05-11T13:40:36.158Z,165
2017-05-11T13:41:59.030Z,165
2017-05-11T13:43:21.194Z,165
2017-05-11T13:44:43.216Z,165
2017-05-11T13:46:05.079Z,165
2017-05-11T13:47:27.640Z,165
2017-05-11T13:48:49.839Z,165
2017-05-11T13:50:11.685Z,165
2017-05-11T13:51:33.847Z,165
2017-05-11T13:52:56.320Z,165
2017-05-11T13:54:18.810Z,165
2017-05-11T13:55:40.968Z,165
2017-05-11T13:57:02.872Z,165
2017-05-11T13:58:24.722Z,165
2017-05-11T13:59:46.659Z,160
2017-05-11T14:01:08.496Z,160
2017-05-11T14:02:30.066Z,160
2017-05-11T14:03:51.909Z,160
2017-05-11T14:05:13.847Z,160
2017-05-11T14:06:35.401Z,160
2017-05-11T14:07:57.263Z,165
2017-05-11T14:09:20.059Z,165
2017-05-11T14:10:42.234Z,165
2017-05-11T14:12:03.750Z,160
2017-05-11T14:13:25.928Z,165
2017-05-11T14:14:48.438Z,165
2017-05-11T14:16:10.926Z,165
2017-05-11T14:17:32.155Z,165
2017-05-11T14:18:54.336Z,160
2017-05-11T14:20:16.487Z,165
2017-05-11T14:21:38.405Z,165
2017-05-11T14:23:00.254Z,165
2017-05-11T14:24:22.426Z,165
2017-05-11T14:25:45.296Z,165
2017-05-11T14:27:07.137Z,165
2017-05-11T14:28:29.056Z,160
2017-05-11T14:29:51.544Z,160
2017-05-11T14:31:13.696Z,165
2017-05-11T14:32:35.836Z,165
2017-05-11T14:33:58.318Z,160
2017-05-11T14:35:20.827Z,160
2017-05-11T14:36:43.619Z,160
2017-05-11T14:38:06.105Z,165
2017-05-11T14:39:27.947Z,165
2017-05-11T14:40:50.277Z,165
2017-05-11T14:42:11.887Z,165
2017-05-11T14:43:33.407Z,165
2017-05-11T14:44:55.987Z,160
2017-05-11T14:46:18.476Z,160
2017-05-11T14:47:41.334Z,160
2017-05-11T14:49:02.880Z,160
2017-05-11T14:50:25.038Z,160
2017-05-11T14:51:47.579Z,160
2017-05-11T14:53:09.406Z,160
2017-05-11T14:54:31.991Z,160
2017-05-11T14:55:53.870Z,160
2017-05-11T14:57:16.370Z,160
2017-05-11T14:58:37.906Z,160
2017-05-11T14:59:59.117Z,160
2017-05-11T15:01:21.289Z,160
2017-05-11T15:02:43.819Z,160
2017-05-11T15:04:06.229Z,160
2017-05-11T15:05:28.093Z,160
2017-05-11T15:06:49.940Z,165
2017-05-11T15:08:12.208Z,165
2017-05-11T15:09:34.688Z,165
2017-05-11T15:10:56.589Z,165
2017-05-11T15:12:18.759Z,170
2017-05-11T15:13:40.984Z,170
2017-05-11T15:15:03.643Z,160
2017-05-11T15:16:25.618Z,155
2017-05-11T15:17:47.149Z,155
2017-05-11T15:19:09.086Z,155
2017-05-11T15:20:31.617Z,150
2017-05-11T15:21:53.504Z,150
2017-05-11T15:23:15.458Z,150
2017-05-11T15:24:37.683Z,150
2017-05-11T15:26:00.619Z,160
2017-05-11T15:27:22.786Z,155
2017-05-11T15:28:44.345Z,160
2017-05-11T15:30:39.114Z,170
2017-05-11T15:32:01.658Z,190
2017-05-11T15:33:24.128Z,210
2017-05-11T15:34:46.620Z,210
2017-05-11T15:36:09.401Z,220
2017-05-11T15:37:31.906Z,220
2017-05-11T15:38:54.118Z,215
2017-05-11T15:40:16.007Z,215
2017-05-11T15:41:38.468Z,215
2017-05-11T15:43:00.117Z,215
2017-05-11T15:44:22.308Z,215
2017-05-11T15:45:44.154Z,215
2017-05-11T15:47:06.688Z,220
2017-05-11T15:48:28.609Z,210
2017-05-11T15:49:50.455Z,220
2017-05-11T15:51:12.038Z,210
2017-05-11T15:52:34.268Z,205
2017-05-11T15:53:55.843Z,205
2017-05-11T15:55:17.759Z,200
2017-05-11T15:56:39.998Z,205
2017-05-11T15:58:01.939Z,205
2017-05-11T15:59:24.586Z,205
2017-05-11T16:00:47.101Z,205
2017-05-11T16:02:09.337Z,210
2017-05-11T16:03:31.605Z,210
2017-05-11T16:04:53.587Z,215
2017-05-11T16:06:15.606Z,220
2017-05-11T16:07:37.477Z,220
2017-05-11T16:09:00.028Z,230
2017-05-11T16:10:22.577Z,230
2017-05-11T16:11:44.766Z,225
2017-05-11T16:13:06.949Z,220
2017-05-11T16:14:28.830Z,220
2017-05-11T16:15:50.726Z,215
2017-05-11T16:17:12.918Z,215
2017-05-11T16:18:35.072Z,215
2017-05-11T16:19:57.557Z,220
2017-05-11T16:21:19.776Z,225
2017-05-11T16:22:41.997Z,225
2017-05-11T16:24:04.136Z,220
2017-05-11T16:25:26.429Z,215
2017-05-11T16:26:48.998Z,210
2017-05-11T16:28:11.503Z,205
2017-05-11T16:29:33.761Z,205
2017-05-11T16:30:56.487Z,210
2017-05-11T16:32:18.961Z,215
2017-05-11T16:33:41.170Z,220
2017-05-11T16:35:03.349Z,210
2017-05-11T16:36:25.869Z,215
2017-05-11T16:37:48.089Z,215
2017-05-11T16:39:10.563Z,220
2017-05-11T16:40:33.093Z,210
2017-05-11T16:41:55.295Z,205
2017-05-11T16:43:17.488Z,205
2017-05-11T16:44:40.061Z,205
2017-05-11T16:46:02.246Z,205
2017-05-11T16:47:24.077Z,200
2017-05-11T16:48:46.289Z,190
2017-05-11T16:50:08.285Z,190
2017-05-11T16:51:30.304Z,195
2017-05-11T16:52:53.340Z,190
2017-05-11T16:54:15.225Z,185
2017-05-11T16:55:37.720Z,180
2017-05-11T16:57:00.228Z,170
2017-05-11T16:58:22.508Z,170
2017-05-11T16:59:44.362Z,175
2017-05-11T17:01:06.225Z,170
2017-05-11T17:02:28.088Z,170
2017-05-11T17:03:50.623Z,170
2017-05-11T17:05:12.600Z,165
2017-05-11T17:06:34.744Z,165
2017-05-11T17:07:56.908Z,165
2017-05-11T17:09:19.067Z,160
2017-05-11T17:10:41.766Z,150
2017-05-11T17:12:03.615Z,140
2017-05-11T17:13:25.879Z,135
2017-05-11T17:14:48.387Z,130
2017-05-11T17:16:10.697Z,130
2017-05-11T17:17:32.556Z,130
2017-05-11T17:18:55.188Z,125
2017-05-11T17:20:17.667Z,125
2017-05-11T17:21:40.416Z,120
2017-05-11T17:23:02.608Z,120
2017-05-11T17:24:25.106Z,120
2017-05-11T17:25:47.312Z,120
2017-05-11T17:27:09.808Z,120
2017-05-11T17:28:32.306Z,120
2017-05-11T17:29:54.496Z,120
2017-05-11T17:31:16.646Z,115
2017-05-11T17:32:39.265Z,115
2017-05-11T17:34:01.737Z,110
2017-05-11T17:35:23.580Z,110
2017-05-11T17:36:46.371Z,110
2017-05-11T17:38:08.897Z,105
2017-05-11T17:39:30.768Z,100
2017-05-11T17:40:52.954Z,95
2017-05-11T17:42:15.423Z,95
2017-05-11T17:43:37.948Z,95
2017-05-11T17:45:00.519Z,95
2017-05-11T17:46:22.687Z,95
2017-05-11T17:47:45.557Z,95
2017-05-11T17:49:07.876Z,95
2017-05-11T17:50:30.049Z,95
2017-05-11T17:51:52.247Z,95
2017-05-11T17:53:14.768Z,95
2017-05-11T17:54:37.297Z,95
2017-05-11T17:55:59.828Z,95
2017-05-11T17:57:22.317Z,95
2017-05-11T17:58:44.187Z,95
2017-05-11T18:00:06.457Z,100
2017-05-11T18:01:28.619Z,100
2017-05-11T18:02:51.106Z,100
2017-05-11T18:04:13.654Z,95
2017-05-11T18:05:35.872Z,95
2017-05-11T18:06:58.111Z,90
2017-05-11T18:08:19.957Z,90
2017-05-11T18:09:42.577Z,85
2017-05-11T18:11:05.083Z,85
2017-05-11T18:12:27.348Z,80
2017-05-11T18:13:49.716Z,85
2017-05-11T18:15:11.972Z,80
2017-05-11T18:16:34.135Z,75
2017-05-11T18:17:56.468Z,75
2017-05-11T18:19:18.637Z,70
2017-05-11T18:20:40.619Z,65
2017-05-11T18:22:03.186Z,65
2017-05-11T18:23:25.736Z,60
2017-05-11T18:24:47.639Z,55
2017-05-11T18:26:10.110Z,55
2017-05-11T18:27:32.293Z,50
2017-05-11T18:28:54.485Z,55
2017-05-11T18:30:16.669Z,45
2017-05-11T18:31:39.216Z,50
2017-05-11T18:33:01.446Z,40
2017-05-11T18:34:23.678Z,40
2017-05-11T18:35:45.692Z,40
2017-05-11T18:37:08.278Z,40
2017-05-11T18:38:30.817Z,40
2017-05-11T18:39:53.071Z,35
2017-05-11T18:41:15.245Z,35
2017-05-11T18:42:37.717Z,35
2017-05-11T18:44:00.077Z,30
2017-05-11T18:45:54.572Z,30
2017-05-11T18:47:17.448Z,25
2017-05-11T18:48:39.786Z,25
2017-05-11T18:50:01.949Z,20
2017-05-11T18:51:24.577Z,20
2017-05-11T18:52:47.386Z,20
2017-05-11T18:54:08.929Z,15
2017-05-11T18:55:30.799Z,15
2017-05-11T18:56:53.352Z,15
2017-05-11T18:58:15.573Z,15
2017-05-11T18:59:38.108Z,10
2017-05-11T19:01:00.019Z,10
2017-05-11T19:02:21.893Z,10
2017-05-11T19:03:44.381Z,10
2017-05-11T19:05:05.927Z,5
2017-05-11T19:06:28.428Z,5
2017-05-11T19:07:50.653Z,5
2017-05-11T19:09:13.238Z,5
2017-05-11T19:10:35.738Z,5
2017-05-11T19:11:57.700Z,5